Create Custom Reports and Graphics: Custom Report

OV-Red Dog 6200'

Current Conditions

5/20/22 3:30 AM (-07:00)
Updated Every 15 Minutes
Temp 33.9 °F   7.8
RH 50 %   24
Dew Pt 17.1 °F   17.0
Wet Bulb 28.5 °F   10.1
Wind Dir SSW | 208 °
Wind Spd 6.7 mph   6.1
Wind Gust 13.5 mph   11.7
WindChill 27.7 °F   14.0
Daily Min Temp 33.8 °F   7.9
Daily Max Temp 43.1 °F   5.2
Latest Rain 0.00 In
Daily Rain 0.00 In
New Snow 84.0 in
SnowDepth 242.4 in

Last 24 Hours

OV-Red Dog 6200'

Hourly Data | America/Los_Angeles
as of 5/20/22 3:37 AM PDT
Date & Time Temp (°F) RH (%) Dew Pt (°F) Wet Bulb (°F) Wind Dir (°) Wind Spd (mph) Wind Gust (mph) Latest Rain (In) New Snow (in) SnowDepth (in) Daily Min Temp (°F) Daily Max Temp (°F) Daily Rain (In)
5/20/22 - 0300 35.0 48 17.1 29.2 SW | 218 5.8 11.2 0.00 81.3 240.7 35.0 43.1 0.00
5/20/22 - 0200 37.5 42 16.6 30.6 SSW | 208 6.3 15.1 0.00 82.3 242.6 37.2 43.1 0.00
5/20/22 - 0100 40.2 34 14.0 31.6 SW | 222 4.6 10.0 0.00 82.1 241.1 40.1 43.1 0.00
5/20/22 - 0000 41.2 36 16.4 32.8 WSW | 257 2.3 7.7 0.00 82.9 242.4 38.3 67.0 0.00
5/19/22 - 2300 41.7 37 17.2 33.3 W | 265 1.5 4.4 0.00 81.9 240.2 39.1 67.0 0.00
5/19/22 - 2200 44.7 31 15.7 34.6 W | 270 1.6 6.6 0.00 82.6 242.9 39.1 67.0 0.00
5/19/22 - 2100 51.0 20 11.2 37.1 NNW | 332 4.4 11.8 0.00 84.2 244.8 39.1 67.0 0.00
5/19/22 - 2000 53.1 18 10.1 38.0 N | 357 12.1 24.1 0.00 83.4 246.7 39.1 67.0 0.00
5/19/22 - 1900 56.4 15 9.9 39.6 N | 3 11.4 22.5 0.00 85.0 248.5 39.1 67.0 0.00
5/19/22 - 1800 59.2 17 14.5 41.7 N | 8 12.6 27.8 0.00 86.4 251.1 39.1 67.0 0.00
5/19/22 - 1700 60.8 42 37.4 49.0 N | 1 12.4 24.3 0.00 86.6 251.6 39.1 67.0 0.00
5/19/22 - 1600 62.3 40 37.9 49.8 NNE | 13 11.4 19.9 0.00 88.6 253.9 39.1 67.0 0.00
5/19/22 - 1500 63.4 43 40.4 51.2 N | 3 11.8 21.5 0.00 88.1 255.2 39.1 67.0 0.00
5/19/22 - 1400 64.6 42 41.2 52.0 N | 7 11.5 18.7 0.00 78.9 245.9 39.1 67.0 0.00
5/19/22 - 1300 64.7 42 41.0 52.0 N | 356 11.0 18.3 0.00 73.5 242.7 39.1 67.0 0.00
5/19/22 - 1200 66.0 36 38.1 51.2 N | 358 10.5 18.0 0.00 69.0 240.7 39.1 67.0 0.00
5/19/22 - 1100 64.4 37 37.3 50.3 N | 9 9.7 19.6 0.00 71.2 242.0 39.1 65.7 0.00
5/19/22 - 1000 63.4 39 38.2 50.3 NNW | 348 9.3 17.3 0.00 75.8 248.4 39.1 63.9 0.00
5/19/22 - 0900 61.8 40 37.4 49.4 NW | 316 5.0 13.9 0.00 81.2 255.0 39.1 62.1 0.00
5/19/22 - 0800 50.1 61 37.2 44.2 S | 186 1.0 3.5 0.00 88.6 256.2 39.1 50.2 0.00
5/19/22 - 0700 44.1 76 36.9 41.0 SW | 231 1.0 3.2 0.00 85.6 249.8 39.1 48.3 0.00
5/19/22 - 0600 40.3 81 34.9 38.0 W | 274 0.8 3.3 0.00 90.7 256.8 39.6 48.3 0.00
5/19/22 - 0500 40.5 78 34.2 37.9 W | 263 0.9 3.5 0.00 87.5 249.9 40.2 48.3 0.00
5/19/22 - 0400 41.3 76 34.2 38.4 W | 274 0.9 3.0 0.00 90.1 255.0 41.0 48.3 0.00
5/19/22 - 0300 42.1 72 33.9 38.7 W | 271 0.9 3.4 0.00 88.3 252.2 42.1 48.3 0.00
Max 66.0 81 41.2 52.0 - 12.6 27.8 0.00 90.7 256.8 42.1 67.0 0.00
Avg 51.6 44 28.1 41.7 - 6.4 13.3 0.00 83.0 247.9 - - -
Min 35.0 15 9.9 29.2 - 0.8 3.0 0.00 69.0 240.2 35.0 43.1 0.00
Total - - - - - - - 0.00 - - - - -

Last 30 Days

OV-Red Dog 6200'

Daily Data | America/Los_Angeles
as of 5/20/22 3:37 AM PDT
Date Daily Max Temp (°F) Time of Max Temp Daily Min Temp (°F) Time of Min Temp Daily Rain (In) New Snow (in) SnowDepth (in) Wind Spd (mph) Daily Max Wind (mph) Time of Max Wind Max Wind Dir (°) Max RH (%) Min RH (%) Wet Bulb (°F) WetB Hrs <28F (hrs) MinBV Day (V)
5/19/22 67.0 1217 38.3 2337 0.00 82.9 242.4 6.1 27.8 1716 N | 0 85 13 43.1 0.0 12.2
5/18/22 79.6 1511 36.0 0549 0.00 89.6 252.7 3.1 18.5 2023 NNW | 347 95 15 46.4 0.0 12.4
5/17/22 74.1 1522 30.6 0507 0.00 87.8 252.8 2.3 14.6 1559 NW | 321 81 12 41.4 0.0 12.4
5/16/22 64.1 1512 37.4 0559 0.00 83.6 244.3 4.2 18.5 1447 N | 3 92 17 42.7 0.0 12.4
5/15/22 69.0 1104 36.7 0535 0.00 87.9 250.7 4.7 21.0 1707 N | 349 94 24 46.0 0.0 12.4
5/14/22 71.8 1502 31.9 0552 0.00 85.4 248.1 2.4 12.1 1714 N | 11 98 19 43.6 0.0 12.4
5/13/22 60.7 1505 26.6 0542 0.00 83.7 245.5 3.2 16.6 1803 NNW | 348 93 22 38.0 16.2 12.4
5/12/22 48.2 1642 24.4 0608 0.00 84.6 246.4 4.1 19.2 1421 N | 1 94 23 31.7 20.6 12.4
5/11/22 44.7 1501 19.1 0001 0.00 87.9 251.5 3.7 15.2 1519 NNW | 329 94 32 27.8 - 12.4
5/10/22 38.8 1001 17.5 0612 0.00 34.8 202.4 2.7 16.4 1239 NNW | 333 94 45 23.9 - 12.4
5/9/22 32.5 1140 23.4 0520 0.00 - 172.4 6.2 17.8 0143 NNW | 342 95 61 24.2 - 12.4
5/8/22 38.3 0334 25.4 2345 0.00 - 128.6 9.6 24.9 1519 NNW | 339 93 49 28.5 - 12.4
5/7/22 50.0 1434 36.6 2356 0.00 83.3 246.4 10.0 24.4 1356 NW | 308 73 27 37.0 0.0 12.4
5/6/22 55.7 1244 44.0 2359 0.00 43.4 206.3 11.5 29.4 1815 NE | 36 88 51 - 0.0 12.4
5/5/22 55.7 1321 41.2 0035 0.00 73.2 236.9 12.9 37.8 1123 NNE | 22 80 34 42.0 0.0 12.3
5/4/22 69.5 1252 29.5 0553 0.00 83.4 244.8 3.8 16.1 1027 SW | 226 79 16 45.0 0.0 12.4
5/3/22 62.4 1543 26.0 0559 0.00 - 92.2 2.8 15.8 1515 SW | 227 84 22 35.1 19.7 12.4
5/2/22 46.6 0913 28.6 0341 0.00 83.6 245.0 12.8 42.2 1127 N | 4 86 31 35.4 5.0 12.4
5/1/22 57.4 1758 30.3 0435 0.00 83.0 242.4 3.2 17.5 0104 NNW | 329 97 15 35.9 0.0 12.4
4/30/22 53.2 1351 29.9 0552 0.00 83.2 245.2 4.5 19.2 1758 NE | 35 94 42 38.2 0.0 12.4
4/29/22 61.0 1454 24.0 0605 0.00 85.2 248.1 2.4 13.7 1730 NNW | 338 92 16 35.1 22.3 12.4
4/28/22 42.7 1254 28.3 2359 0.00 - 260.8 7.5 25.6 1226 NNE | 12 86 27 31.9 1.9 12.4
4/27/22 51.0 1304 28.7 0611 0.06 22.1 192.9 5.8 20.3 1155 N | 1 72 21 36.0 0.0 12.4
4/26/22 53.5 1703 31.5 0118 0.00 - 18.4 6.4 22.0 1030 NW | 315 91 28 37.5 0.0 12.3
4/25/22 53.6 1625 27.3 0448 0.00 2.0 20.9 3.9 23.9 1501 NNW | 348 97 30 35.5 11.9 12.4
4/24/22 57.8 1540 22.5 0604 0.00 4.3 23.2 2.0 9.7 1146 SSE | 165 96 20 33.5 22.8 12.4
4/23/22 50.8 1355 21.1 0613 0.00 6.5 27.0 1.4 7.8 1758 NW | 305 97 38 31.6 - 12.4
4/22/22 41.8 0929 23.6 0648 0.00 7.8 29.7 2.6 13.4 1157 NNE | 27 99 49 29.9 - 12.4
4/21/22 37.1 0005 28.1 2328 0.01 7.7 - 2.5 21.4 1331 NNE | 33 100 81 31.5 2.4 11.9
4/20/22 43.7 1556 34.1 0637 0.00 - 12.4 10.9 30.4 1339 N | 0 87 53 34.8 0.0 12.4
Max 79.6 - 44.0 - 0.06 89.6 260.8 12.9 42.2 - - 100 81 46.4 22.8 12.4
Avg - - - - - 61.5 183.8 5.3 - - - - - 36.0 - -
Min 32.5 - 17.5 - 0.00 2.0 12.4 1.4 7.8 - - 72 12 23.9 0.0 11.9
Calm: 0.0%
Calm: 0.7%